createdAt,value
2023-04-09T00:02:15.635Z,7.93
2023-04-09T00:07:17.162Z,7.28
2023-04-09T00:12:18.715Z,7.57
2023-04-09T00:17:20.318Z,6.90
2023-04-09T00:22:21.875Z,7.68
2023-04-09T00:27:23.432Z,7.38
2023-04-09T00:32:24.979Z,7.63
2023-04-09T00:37:26.512Z,8.00
2023-04-09T00:42:32.188Z,7.68
2023-04-09T00:47:34.975Z,7.45
2023-04-09T00:52:36.661Z,8.18
2023-04-09T00:57:38.234Z,8.25
2023-04-09T01:02:41.327Z,7.43
2023-04-09T01:08:04.410Z,7.28
2023-04-09T01:13:16.167Z,7.60
2023-04-09T01:18:29.444Z,7.43
2023-04-09T01:23:54.703Z,7.03
2023-04-09T01:28:57.698Z,7.68
2023-04-09T01:34:00.664Z,7.43
2023-04-09T01:39:03.196Z,7.65
2023-04-09T01:44:06.292Z,8.50
2023-04-09T01:49:09.353Z,8.70
2023-04-09T01:54:10.995Z,8.90
2023-04-09T01:59:13.343Z,8.50
2023-04-09T02:04:21.691Z,8.95
2023-04-09T02:09:24.549Z,9.07
2023-04-09T02:14:28.401Z,9.23
2023-04-09T02:19:44.593Z,9.38
2023-04-09T02:24:46.921Z,10.23
2023-04-09T02:29:48.503Z,10.32
2023-04-09T02:34:50.213Z,10.60
2023-04-09T02:39:51.719Z,10.43
2023-04-09T02:44:53.447Z,10.60
2023-04-09T02:49:55.006Z,10.88
2023-04-09T02:54:56.997Z,11.00
2023-04-09T02:59:58.516Z,10.68
2023-04-09T03:05:00.068Z,11.27
2023-04-09T03:10:01.579Z,10.82
2023-04-09T03:15:04.574Z,11.80
2023-04-09T03:20:09.480Z,11.07
2023-04-09T03:25:13.305Z,12.10
2023-04-09T03:30:15.208Z,11.55
2023-04-09T03:35:19.569Z,11.25
2023-04-09T03:40:21.652Z,11.95
2023-04-09T03:45:23.305Z,12.80
2023-04-09T03:50:27.221Z,11.68
2023-04-09T03:55:31.406Z,10.40
2023-04-09T04:00:36.739Z,11.05
2023-04-09T04:06:11.877Z,11.80
2023-04-09T04:11:28.164Z,11.75
2023-04-09T04:16:30.552Z,11.20
2023-04-09T04:21:32.336Z,13.38
2023-04-09T04:26:36.583Z,11.90
2023-04-09T04:31:38.520Z,12.23
2023-04-09T04:36:40.252Z,12.45
2023-04-09T04:41:42.868Z,12.70
2023-04-09T04:46:49.933Z,12.43
2023-04-09T04:51:51.493Z,12.93
2023-04-09T04:56:53.539Z,12.70
2023-04-09T05:02:27.516Z,12.60
2023-04-09T05:07:49.132Z,12.27
2023-04-09T05:12:50.981Z,11.80
2023-04-09T05:18:02.828Z,11.82
2023-04-09T05:23:04.885Z,14.02
2023-04-09T05:28:12.020Z,12.80
2023-04-09T05:33:15.367Z,13.48
2023-04-09T05:38:17.069Z,12.18
2023-04-09T05:43:22.554Z,11.77
2023-04-09T05:48:24.398Z,12.38
2023-04-09T05:53:27.645Z,12.45
2023-04-09T05:58:29.565Z,11.15
2023-04-09T06:03:32.829Z,12.77
2023-04-09T06:08:34.716Z,12.13
2023-04-09T06:13:36.288Z,11.30
2023-04-09T06:18:37.940Z,11.70
2023-04-09T06:23:40.283Z,11.88
2023-04-09T06:28:42.462Z,10.85
2023-04-09T06:33:43.998Z,10.55
2023-04-09T06:38:45.615Z,10.10
2023-04-09T06:43:47.159Z,10.25
2023-04-09T06:48:48.759Z,10.93
2023-04-09T06:53:50.491Z,9.32
2023-04-09T06:58:52.166Z,9.80
2023-04-09T07:03:54.046Z,9.65
2023-04-09T07:08:56.176Z,10.48
2023-04-09T07:13:58.217Z,11.75
2023-04-09T07:18:59.864Z,12.00
2023-04-09T07:24:02.093Z,10.45
2023-04-09T07:29:04.429Z,10.00
2023-04-09T07:34:06.319Z,10.70
2023-04-09T07:39:07.859Z,10.40
2023-04-09T07:44:12.219Z,9.68
2023-04-09T07:49:13.942Z,9.95
2023-04-09T07:54:15.523Z,10.77
2023-04-09T07:59:17.264Z,10.85
2023-04-09T08:04:18.989Z,12.55
2023-04-09T08:09:21.524Z,12.35
2023-04-09T08:14:23.115Z,11.60
2023-04-09T08:19:24.794Z,12.32
2023-04-09T08:24:26.632Z,12.25
2023-04-09T08:29:28.426Z,13.15
2023-04-09T08:34:29.954Z,10.90
2023-04-09T08:39:31.918Z,9.80
2023-04-09T08:44:33.551Z,9.55
2023-04-09T08:49:35.210Z,9.77
2023-04-09T08:54:42.109Z,8.45
2023-04-09T08:59:43.643Z,7.65
2023-04-09T09:04:49.458Z,6.88
2023-04-09T09:09:54.801Z,6.60
2023-04-09T09:14:56.390Z,5.32
2023-04-09T09:19:59.045Z,7.22
2023-04-09T09:25:01.029Z,6.43
2023-04-09T09:30:05.616Z,5.15
2023-04-09T09:35:07.702Z,3.80
2023-04-09T09:40:09.949Z,4.03
2023-04-09T09:45:18.267Z,5.60
2023-04-09T09:50:25.467Z,5.13
2023-04-09T09:55:30.906Z,5.22
2023-04-09T10:00:33.074Z,5.65
2023-04-09T10:05:39.057Z,6.13
2023-04-09T10:10:44.545Z,6.15
2023-04-09T10:15:46.826Z,5.57
2023-04-09T10:21:01.693Z,5.78
2023-04-09T10:26:04.318Z,5.65
2023-04-09T10:31:07.894Z,4.60
2023-04-09T10:36:13.362Z,4.57
2023-04-09T10:41:21.562Z,5.32
2023-04-09T10:46:30.611Z,4.53
2023-04-09T10:51:36.597Z,3.47
2023-04-09T10:56:38.174Z,4.82
2023-04-09T11:01:39.736Z,4.40
2023-04-09T11:06:46.193Z,4.78
2023-04-09T11:11:53.498Z,4.60
2023-04-09T11:16:55.636Z,4.60
2023-04-09T11:21:57.170Z,4.60
2023-04-09T11:27:02.111Z,5.18
2023-04-09T11:32:07.516Z,4.63
2023-04-09T11:37:14.519Z,4.57
2023-04-09T11:42:16.047Z,3.95
2023-04-09T11:47:18.169Z,3.80
2023-04-09T11:52:19.790Z,3.45
2023-04-09T11:57:21.400Z,3.70
2023-04-09T12:02:23.480Z,2.95
2023-04-09T12:07:32.493Z,2.80
2023-04-09T12:12:45.458Z,3.30
2023-04-09T12:17:49.416Z,3.08
2023-04-09T12:22:51.029Z,3.15
2023-04-09T12:27:52.750Z,3.58
2023-04-09T12:32:55.160Z,3.25
2023-04-09T12:37:56.771Z,2.97
2023-04-09T12:42:58.292Z,3.10
2023-04-09T12:47:59.938Z,2.95
2023-04-09T12:53:01.493Z,3.78
2023-04-09T12:58:03.072Z,4.32
2023-04-09T13:03:04.989Z,3.17
2023-04-09T13:08:06.779Z,2.70
2023-04-09T13:13:12.157Z,3.35
2023-04-09T13:18:13.798Z,3.22
2023-04-09T13:23:15.516Z,3.45
2023-04-09T13:28:17.070Z,3.05
2023-04-09T13:33:18.610Z,3.58
2023-04-09T13:38:20.246Z,4.35
2023-04-09T13:43:21.868Z,3.65
2023-04-09T13:48:24.307Z,3.42
2023-04-09T13:53:26.090Z,3.78
2023-04-09T13:58:27.614Z,3.50
2023-04-09T14:03:29.181Z,3.58
2023-04-09T14:08:30.899Z,3.10
2023-04-09T14:13:32.481Z,3.92
2023-04-09T14:18:34.198Z,3.90
2023-04-09T14:23:35.873Z,3.20
2023-04-09T14:28:37.988Z,2.92
2023-04-09T14:33:40.281Z,2.92
2023-04-09T14:38:41.803Z,3.65
2023-04-09T14:43:43.342Z,3.33
2023-04-09T14:48:44.849Z,3.40
2023-04-09T14:53:46.489Z,3.30
2023-04-09T14:58:48.039Z,3.22
2023-04-09T15:03:49.661Z,3.10
2023-04-09T15:08:51.521Z,2.97
2023-04-09T15:13:53.303Z,3.72
2023-04-09T15:18:57.631Z,3.60
2023-04-09T15:23:59.209Z,5.32
2023-04-09T15:29:05.385Z,3.67
2023-04-09T15:34:07.099Z,3.08
2023-04-09T15:39:08.618Z,2.95
2023-04-09T15:44:10.608Z,3.30
2023-04-09T15:49:12.151Z,3.25
2023-04-09T15:54:13.782Z,3.20
2023-04-09T15:59:16.398Z,3.50
2023-04-09T16:04:18.007Z,2.80
2023-04-09T16:09:19.546Z,2.70
2023-04-09T16:14:21.556Z,3.05
2023-04-09T16:19:25.032Z,2.88
2023-04-09T16:24:27.127Z,3.03
2023-04-09T16:29:28.886Z,3.28
2023-04-09T16:34:31.962Z,3.58
2023-04-09T16:39:33.511Z,3.38
2023-04-09T16:44:35.709Z,3.42
2023-04-09T16:49:37.361Z,3.30
2023-04-09T16:54:38.898Z,4.53
2023-04-09T16:59:42.503Z,4.57
2023-04-09T17:04:44.050Z,3.53
2023-04-09T17:09:45.673Z,3.50
2023-04-09T17:14:47.204Z,3.13
2023-04-09T17:19:48.931Z,3.22
2023-04-09T17:24:50.581Z,3.05
2023-04-09T17:29:53.718Z,3.50
2023-04-09T17:34:55.478Z,3.85
2023-04-09T17:39:57.093Z,3.28
2023-04-09T17:44:59.118Z,3.05
2023-04-09T17:50:01.547Z,3.47
2023-04-09T17:55:14.057Z,5.38
2023-04-09T18:00:16.120Z,3.75
2023-04-09T18:05:21.032Z,4.20
2023-04-09T18:10:23.395Z,4.20
2023-04-09T18:15:24.953Z,4.20
2023-04-09T18:20:26.576Z,3.88
2023-04-09T18:25:28.729Z,4.00
2023-04-09T18:30:31.171Z,3.05
2023-04-09T18:35:32.744Z,4.07
2023-04-09T18:40:41.286Z,3.47
2023-04-09T18:45:42.917Z,4.18
2023-04-09T18:50:44.452Z,3.45
2023-04-09T18:55:46.465Z,3.45
2023-04-09T19:00:51.470Z,3.35
2023-04-09T19:05:53.131Z,4.80
2023-04-09T19:10:55.592Z,4.00
2023-04-09T19:15:57.194Z,3.80
2023-04-09T19:20:58.927Z,3.55
2023-04-09T19:26:00.954Z,4.03
2023-04-09T19:31:06.400Z,4.00
2023-04-09T19:36:08.270Z,3.30
2023-04-09T19:41:10.482Z,3.63
2023-04-09T19:46:13.159Z,3.63
2023-04-09T19:51:21.951Z,3.83
2023-04-09T19:56:23.558Z,3.88
2023-04-09T20:01:25.194Z,4.00
2023-04-09T20:06:27.159Z,6.07
2023-04-09T20:11:28.727Z,6.03
2023-04-09T20:16:30.442Z,5.97
2023-04-09T20:21:32.006Z,4.57
2023-04-09T20:26:33.504Z,5.13
2023-04-09T20:31:36.110Z,5.38
2023-04-09T20:36:37.983Z,5.28
2023-04-09T20:41:39.493Z,4.60
2023-04-09T20:46:41.014Z,5.57
2023-04-09T20:51:42.596Z,5.60
2023-04-09T20:56:44.619Z,5.43
2023-04-09T21:01:46.191Z,4.70
2023-04-09T21:06:47.843Z,4.75
2023-04-09T21:11:49.455Z,4.65
2023-04-09T21:16:52.345Z,4.50
2023-04-09T21:21:54.341Z,5.82
2023-04-09T21:26:56.077Z,5.07
2023-04-09T21:31:57.594Z,5.60
2023-04-09T21:36:59.189Z,5.05
2023-04-09T21:42:00.728Z,5.10
2023-04-09T21:47:07.430Z,4.63
2023-04-09T21:52:14.525Z,5.13
2023-04-09T21:57:16.470Z,7.18
2023-04-09T22:02:18.534Z,8.15
2023-04-09T22:07:20.382Z,6.60
2023-04-09T22:12:21.895Z,5.82
2023-04-09T22:17:23.462Z,6.75
2023-04-09T22:22:25.001Z,6.43
2023-04-09T22:27:26.795Z,5.95
2023-04-09T22:32:28.845Z,5.57
2023-04-09T22:37:30.789Z,6.45
2023-04-09T22:42:33.049Z,5.97
2023-04-09T22:47:34.962Z,6.53
2023-04-09T22:52:36.602Z,6.97
2023-04-09T22:57:38.445Z,6.10
2023-04-09T23:02:40.209Z,7.07
2023-04-09T23:07:42.745Z,6.40
2023-04-09T23:12:44.321Z,7.50
2023-04-09T23:17:45.893Z,10.25
2023-04-09T23:22:48.018Z,7.75
2023-04-09T23:27:49.703Z,7.70
2023-04-09T23:32:57.032Z,6.60
2023-04-09T23:37:59.196Z,7.57
2023-04-09T23:43:00.748Z,6.97
2023-04-09T23:48:03.636Z,6.85
2023-04-09T23:53:05.446Z,7.82
2023-04-09T23:58:07.678Z,7.30
